Time;durP1;ratioP1;P1;durP2;ratioP2;P2;SDS_P1;SDS_P2;PMS_P1;PMS_P2;Temp;Humidity;BMP_temperature;BMP_pressure;BME280_temperature;BME280_humidity;BME280_pressure;Samples;Min_cycle;Max_cycle;Signal;HPM_P1;HPM_P2
2023/12/07 00:00:51;;;;;;;7.33;6.00;;;3.00;99.90;;;;;;5068919;28;20178;-73
2023/12/07 00:03:16;;;;;;;12.20;5.83;;;3.00;99.90;;;;;;5070965;28;20725;-71
2023/12/07 00:05:42;;;;;;;9.13;4.83;;;2.90;99.90;;;;;;5071126;28;20226;-72
2023/12/07 00:08:11;;;;;;;8.07;5.40;;;2.90;99.90;;;;;;5072574;28;20188;-72
2023/12/07 00:10:36;;;;;;;9.20;6.20;;;2.90;99.90;;;;;;5071250;28;20190;-72
2023/12/07 00:13:02;;;;;;;7.80;5.37;;;2.90;99.90;;;;;;5071096;28;20446;-72
2023/12/07 00:15:28;;;;;;;7.77;5.40;;;2.80;99.90;;;;;;5072430;28;20681;-72
2023/12/07 00:17:53;;;;;;;6.90;5.07;;;2.90;99.90;;;;;;5071148;28;20223;-73
2023/12/07 00:20:19;;;;;;;6.10;4.97;;;2.90;99.90;;;;;;5072768;28;20264;-72
2023/12/07 00:22:45;;;;;;;8.03;5.30;;;2.90;99.90;;;;;;5072491;28;20178;-72
2023/12/07 00:25:10;;;;;;;6.70;5.27;;;3.00;99.90;;;;;;5072363;28;20195;-72
2023/12/07 00:27:36;;;;;;;8.63;5.90;;;2.90;99.90;;;;;;5071775;28;20206;-72
2023/12/07 00:30:03;;;;;;;6.95;5.75;;;2.90;99.90;;;;;;5070705;28;20244;-73
2023/12/07 00:32:29;;;;;;;5.63;4.77;;;3.00;99.90;;;;;;5071665;28;20184;-72
2023/12/07 00:34:54;;;;;;;7.27;5.30;;;3.00;99.90;;;;;;5071566;28;20428;-72
2023/12/07 00:37:20;;;;;;;7.93;5.93;;;3.00;99.90;;;;;;5071279;28;20497;-72
2023/12/07 00:39:46;;;;;;;8.20;5.83;;;3.00;99.90;;;;;;5053106;28;20189;-73
2023/12/07 00:42:11;;;;;;;11.13;7.30;;;2.90;99.90;;;;;;5071510;28;20652;-72
2023/12/07 00:44:41;;;;;;;13.03;7.67;;;2.80;99.90;;;;;;5071473;28;20216;-72
2023/12/07 00:47:06;;;;;;;9.27;6.37;;;2.80;99.90;;;;;;5071376;28;20198;-71
2023/12/07 00:49:32;;;;;;;9.77;6.63;;;2.80;99.90;;;;;;5071136;28;20991;-71
2023/12/07 00:51:58;;;;;;;8.73;6.57;;;2.70;99.90;;;;;;5069754;28;20459;-72
2023/12/07 00:54:23;;;;;;;8.07;6.10;;;2.80;99.90;;;;;;5052867;28;20211;-71
2023/12/07 00:56:49;;;;;;;8.70;6.80;;;2.80;99.90;;;;;;5069862;28;20321;-72
2023/12/07 00:59:14;;;;;;;8.30;6.03;;;2.80;99.90;;;;;;5069751;28;20590;-72
2023/12/07 01:01:40;;;;;;;8.60;5.50;;;2.70;99.90;;;;;;5071220;28;20273;-71
2023/12/07 01:04:06;;;;;;;7.33;5.43;;;2.70;99.90;;;;;;5071227;28;20186;-72
2023/12/07 01:06:31;;;;;;;7.00;5.10;;;2.70;99.90;;;;;;5071035;28;20213;-71
2023/12/07 01:08:57;;;;;;;6.60;4.40;;;2.80;99.90;;;;;;5071278;28;20198;-72
2023/12/07 01:11:23;;;;;;;6.07;4.47;;;2.80;99.90;;;;;;5071006;28;20193;-72
2023/12/07 01:13:49;;;;;;;10.10;4.83;;;2.80;99.90;;;;;;5069838;28;20263;-71
2023/12/07 01:16:14;;;;;;;6.23;4.40;;;2.80;99.90;;;;;;5070823;28;20212;-71
2023/12/07 01:18:40;;;;;;;7.07;4.43;;;2.80;99.90;;;;;;5070713;28;20240;-71
2023/12/07 01:21:06;;;;;;;6.03;4.20;;;2.90;99.90;;;;;;5069368;28;20177;-71
2023/12/07 01:23:32;;;;;;;5.23;4.00;;;2.80;99.90;;;;;;5070569;28;20196;-72
2023/12/07 01:25:57;;;;;;;6.65;4.47;;;2.80;99.90;;;;;;5070369;28;20244;-72
2023/12/07 01:28:23;;;;;;;4.47;4.07;;;2.90;99.90;;;;;;5068852;28;20230;-72
2023/12/07 01:30:48;;;;;;;4.33;3.80;;;2.90;99.90;;;;;;5070496;28;20190;-73
2023/12/07 01:33:15;;;;;;;5.33;4.00;;;2.80;99.90;;;;;;5070350;28;20247;-73
2023/12/07 01:35:40;;;;;;;4.93;3.80;;;2.70;99.90;;;;;;5068616;28;20216;-73
2023/12/07 01:38:06;;;;;;;4.63;3.70;;;2.70;99.90;;;;;;5070208;28;21053;-73
2023/12/07 01:40:32;;;;;;;5.40;4.77;;;2.70;99.90;;;;;;5070112;28;20186;-72
2023/12/07 01:42:57;;;;;;;6.67;4.93;;;2.70;99.90;;;;;;5070155;28;20218;-73
2023/12/07 01:45:23;;;;;;;6.33;4.70;;;2.60;99.90;;;;;;5070271;28;20192;-73
2023/12/07 01:47:52;;;;;;;9.87;6.10;;;2.60;99.90;;;;;;5070049;28;20528;-72
2023/12/07 01:50:23;;;;;;;8.83;6.40;;;2.50;99.90;;;;;;5069866;28;20237;-72
2023/12/07 01:52:52;;;;;;;8.25;6.45;;;2.40;99.90;;;;;;5069863;28;20459;-72
2023/12/07 01:55:18;;;;;;;11.43;7.65;;;2.30;99.90;;;;;;5068277;28;20258;-72
2023/12/07 01:57:45;;;;;;;9.43;7.33;;;2.30;99.90;;;;;;5069602;28;20295;-72
2023/12/07 02:00:12;;;;;;;12.32;7.90;;;2.20;99.90;;;;;;5069738;28;20419;-72
2023/12/07 02:02:38;;;;;;;11.45;7.20;;;2.20;99.90;;;;;;5069727;28;20220;-72
2023/12/07 02:05:05;;;;;;;10.80;6.80;;;2.20;99.90;;;;;;5068241;28;20210;-72
2023/12/07 02:07:31;;;;;;;10.73;7.32;;;2.20;99.90;;;;;;5069703;28;20254;-72
2023/12/07 02:09:58;;;;;;;10.27;7.00;;;2.10;99.90;;;;;;5069761;28;20184;-72
2023/12/07 02:12:24;;;;;;;6.88;5.50;;;2.00;99.90;;;;;;5069512;28;20573;-72
2023/12/07 02:14:51;;;;;;;8.57;5.97;;;2.00;99.90;;;;;;5069549;28;20188;-72
2023/12/07 02:17:28;;;;;;;7.05;5.68;;;1.90;99.90;;;;;;5069333;28;20252;-72
2023/12/07 02:20:19;;;;;;;8.80;6.60;;;1.90;99.90;;;;;;5069375;28;20662;-72
2023/12/07 02:22:54;;;;;;;10.45;6.78;;;1.80;99.90;;;;;;5069368;28;20179;-71
2023/12/07 02:25:26;;;;;;;10.02;6.90;;;1.70;99.90;;;;;;5067545;28;20255;-71
2023/12/07 02:27:51;;;;;;;8.95;6.28;;;1.60;99.90;;;;;;5069213;28;20233;-72
2023/12/07 02:30:17;;;;;;;10.50;6.77;;;1.50;99.90;;;;;;5069136;28;20194;-71
2023/12/07 02:32:45;;;;;;;10.97;7.40;;;1.40;99.90;;;;;;5051082;28;20187;-71
2023/12/07 02:35:12;;;;;;;8.55;6.53;;;1.30;99.90;;;;;;5069182;28;20194;-71
2023/12/07 02:37:46;;;;;;;9.50;6.75;;;1.30;99.90;;;;;;5068840;28;20216;-71
2023/12/07 02:40:15;;;;;;;10.27;7.15;;;1.30;99.90;;;;;;5068966;28;20172;-72
2023/12/07 02:42:42;;;;;;;9.65;7.10;;;1.20;99.90;;;;;;5069081;28;20181;-72
2023/12/07 02:45:09;;;;;;;12.32;7.18;;;1.10;99.90;;;;;;5069178;28;20663;-73
2023/12/07 02:47:35;;;;;;;11.70;7.43;;;1.00;99.90;;;;;;5069031;28;20208;-73
2023/12/07 02:50:05;;;;;;;11.75;8.13;;;0.90;99.90;;;;;;5069054;28;20181;-72
2023/12/07 02:52:31;;;;;;;10.85;7.90;;;0.70;99.90;;;;;;5067586;28;20188;-72
2023/12/07 02:54:56;;;;;;;12.20;7.30;;;0.70;99.90;;;;;;5051136;28;20373;-72
2023/12/07 02:57:22;;;;;;;10.83;6.80;;;0.70;99.90;;;;;;5068716;28;20204;-72
2023/12/07 02:59:48;;;;;;;12.20;6.53;;;0.70;99.90;;;;;;5068917;28;20178;-72
2023/12/07 03:02:13;;;;;;;8.70;5.23;;;0.70;99.90;;;;;;5068921;28;20560;-72
2023/12/07 03:04:39;;;;;;;7.13;5.13;;;0.60;99.90;;;;;;5067310;28;20228;-72
2023/12/07 03:07:04;;;;;;;6.20;4.87;;;0.60;99.90;;;;;;5067374;28;20204;-72
2023/12/07 03:09:30;;;;;;;7.63;5.67;;;0.50;99.90;;;;;;5068948;28;20560;-72
2023/12/07 03:11:55;;;;;;;7.97;5.63;;;0.40;99.90;;;;;;5067453;28;20227;-72
2023/12/07 03:14:21;;;;;;;6.93;4.93;;;0.40;99.90;;;;;;5067367;28;20196;-73
2023/12/07 03:16:47;;;;;;;9.63;5.93;;;0.40;99.90;;;;;;5068711;28;20340;-72
2023/12/07 03:19:12;;;;;;;6.73;5.03;;;0.40;99.90;;;;;;5067618;28;20306;-73
2023/12/07 03:21:42;;;;;;;7.30;5.50;;;0.40;99.90;;;;;;5051253;28;20670;-72
2023/12/07 03:24:08;;;;;;;6.57;5.13;;;0.40;99.90;;;;;;5069211;28;20207;-72
2023/12/07 03:26:34;;;;;;;9.20;5.40;;;0.40;99.90;;;;;;5067516;28;20244;-73
2023/12/07 03:29:00;;;;;;;6.30;5.40;;;0.50;99.90;;;;;;5069354;28;20195;-73
2023/12/07 03:31:25;;;;;;;8.93;5.40;;;0.50;99.90;;;;;;5068143;28;20415;-72
2023/12/07 03:33:51;;;;;;;10.67;5.73;;;0.50;99.90;;;;;;5069306;28;20180;-72
2023/12/07 03:36:16;;;;;;;7.50;5.63;;;0.50;99.90;;;;;;5069182;28;20211;-72
2023/12/07 03:38:42;;;;;;;7.50;5.37;;;0.60;99.90;;;;;;5072436;28;20207;-73
2023/12/07 03:41:08;;;;;;;7.03;5.23;;;0.70;99.90;;;;;;5073431;28;20189;-72
2023/12/07 03:43:34;;;;;;;14.50;5.40;;;0.70;99.90;;;;;;5055426;28;20422;-72
2023/12/07 03:45:59;;;;;;;6.40;4.87;;;0.70;99.90;;;;;;5073110;28;20199;-72
2023/12/07 03:48:25;;;;;;;9.70;5.87;;;0.70;99.90;;;;;;5073298;28;20282;-72
2023/12/07 03:50:50;;;;;;;6.90;5.00;;;0.70;99.90;;;;;;5073042;28;20215;-73
2023/12/07 03:53:16;;;;;;;5.13;4.63;;;0.70;99.90;;;;;;5054983;28;20190;-72
2023/12/07 03:55:42;;;;;;;6.53;4.60;;;0.60;99.90;;;;;;5071817;28;20783;-72
2023/12/07 03:58:07;;;;;;;5.77;4.47;;;0.60;99.90;;;;;;5072639;28;20213;-72
2023/12/07 04:00:33;;;;;;;9.50;5.43;;;0.70;99.90;;;;;;5072434;28;20186;-72
2023/12/07 04:02:59;;;;;;;7.87;5.10;;;0.80;99.90;;;;;;5072427;28;20689;-72
2023/12/07 04:05:24;;;;;;;5.90;5.20;;;0.80;99.90;;;;;;5072304;28;20270;-72
2023/12/07 04:07:50;;;;;;;9.17;4.37;;;0.80;99.90;;;;;;5072359;28;20184;-72
2023/12/07 04:10:15;;;;;;;6.87;4.13;;;0.80;99.90;;;;;;5072433;28;20615;-72
2023/12/07 04:12:41;;;;;;;6.07;4.20;;;0.80;99.90;;;;;;5072411;28;20605;-72
2023/12/07 04:15:07;;;;;;;6.60;4.43;;;0.70;99.90;;;;;;5072714;28;20184;-72
2023/12/07 04:17:33;;;;;;;4.18;3.88;;;0.70;99.90;;;;;;5071200;28;20297;-72
2023/12/07 04:19:59;;;;;;;4.67;3.40;;;0.60;99.90;;;;;;5072695;28;20218;-73
2023/12/07 04:22:24;;;;;;;4.33;3.93;;;0.60;99.90;;;;;;5072784;28;20181;-73
2023/12/07 04:24:50;;;;;;;6.00;3.40;;;0.50;99.90;;;;;;5071258;28;20647;-73
2023/12/07 04:27:15;;;;;;;5.80;3.70;;;0.50;99.90;;;;;;5054290;28;20213;-73
2023/12/07 04:29:41;;;;;;;4.63;4.03;;;0.50;99.90;;;;;;5072417;28;20184;-72
2023/12/07 04:32:07;;;;;;;5.50;4.20;;;0.40;99.90;;;;;;5054450;28;20564;-73
2023/12/07 04:34:33;;;;;;;5.63;3.73;;;0.40;99.90;;;;;;5070905;28;20453;-72
2023/12/07 04:36:59;;;;;;;5.07;3.70;;;0.40;99.90;;;;;;5071057;28;20445;-73
2023/12/07 04:39:24;;;;;;;5.40;3.67;;;0.30;99.90;;;;;;5071877;28;20468;-72
2023/12/07 04:41:51;;;;;;;4.90;3.33;;;0.20;99.90;;;;;;5071663;28;20188;-72
2023/12/07 04:44:16;;;;;;;5.68;3.90;;;0.30;99.90;;;;;;5071566;28;20175;-73
2023/12/07 04:46:42;;;;;;;5.33;3.87;;;0.30;99.90;;;;;;5071634;28;20734;-73
2023/12/07 04:49:08;;;;;;;4.28;3.85;;;0.30;99.90;;;;;;5071407;28;20733;-73
2023/12/07 04:51:34;;;;;;;5.87;3.70;;;0.20;99.90;;;;;;5070286;28;20275;-73
2023/12/07 04:53:59;;;;;;;7.70;4.57;;;0.20;99.90;;;;;;5052949;28;20198;-74
2023/12/07 04:56:25;;;;;;;3.97;3.33;;;0.20;99.90;;;;;;5068584;28;20224;-72
2023/12/07 04:58:51;;;;;;;8.73;4.20;;;0.30;99.90;;;;;;5069851;28;20250;-73
2023/12/07 05:01:18;;;;;;;3.07;2.77;;;0.40;99.90;;;;;;5069833;28;20346;-73
2023/12/07 05:03:44;;;;;;;4.30;3.03;;;0.40;99.90;;;;;;5068165;28;20460;-73
2023/12/07 05:06:10;;;;;;;4.07;3.37;;;0.40;99.90;;;;;;5067900;28;20552;-73
2023/12/07 05:08:35;;;;;;;4.43;3.53;;;0.50;99.90;;;;;;5051090;28;20872;-73
2023/12/07 05:11:01;;;;;;;9.20;4.77;;;0.50;99.90;;;;;;5069193;28;20184;-73
2023/12/07 05:13:27;;;;;;;7.33;5.30;;;0.50;99.90;;;;;;5034061;28;20197;-73
2023/12/07 05:15:52;;;;;;;4.50;3.70;;;0.50;99.90;;;;;;5068857;28;20214;-73
2023/12/07 05:18:18;;;;;;;3.80;3.40;;;0.60;99.90;;;;;;5068808;28;20705;-73
2023/12/07 05:20:43;;;;;;;6.77;3.90;;;0.60;99.90;;;;;;5067274;28;20188;-73
2023/12/07 05:23:09;;;;;;;3.70;3.40;;;0.60;99.90;;;;;;5050788;28;20650;-73
2023/12/07 05:25:35;;;;;;;4.97;3.50;;;0.60;99.90;;;;;;5068735;28;20191;-73
2023/12/07 05:28:01;;;;;;;4.63;3.63;;;0.70;99.90;;;;;;5067359;28;20647;-72
2023/12/07 05:30:27;;;;;;;5.40;4.17;;;0.80;99.90;;;;;;5068644;28;20209;-72
2023/12/07 05:32:53;;;;;;;4.70;4.15;;;0.80;99.90;;;;;;5068608;28;20190;-72
2023/12/07 05:35:19;;;;;;;6.30;4.57;;;0.80;99.90;;;;;;5068999;28;20183;-72
2023/12/07 05:37:45;;;;;;;5.60;4.30;;;0.80;99.90;;;;;;5069569;28;20429;-74
2023/12/07 05:40:12;;;;;;;6.13;5.10;;;0.70;99.90;;;;;;5069101;28;20188;-72
2023/12/07 05:42:37;;;;;;;9.77;6.72;;;0.70;99.90;;;;;;5068988;28;20538;-73
2023/12/07 05:45:04;;;;;;;6.50;4.40;;;0.70;99.90;;;;;;5069004;28;20193;-73
2023/12/07 05:47:30;;;;;;;5.60;4.10;;;0.60;99.90;;;;;;5050933;28;20193;-74
2023/12/07 05:49:58;;;;;;;7.63;5.03;;;0.60;99.90;;;;;;5068834;28;20212;-72
2023/12/07 05:52:23;;;;;;;5.88;4.55;;;0.60;99.90;;;;;;5068868;28;20186;-74
2023/12/07 05:54:49;;;;;;;5.33;4.83;;;0.60;99.90;;;;;;5068318;28;20197;-74
2023/12/07 05:57:14;;;;;;;8.57;5.30;;;0.60;99.90;;;;;;5068748;28;20270;-73
2023/12/07 05:59:41;;;;;;;6.43;5.00;;;0.60;99.90;;;;;;5068404;28;20225;-72
2023/12/07 06:02:07;;;;;;;4.88;3.95;;;0.60;99.90;;;;;;5068900;28;20181;-71
2023/12/07 06:04:33;;;;;;;5.97;4.50;;;0.60;99.90;;;;;;5066717;28;20191;-73
2023/12/07 06:06:58;;;;;;;4.53;4.03;;;0.70;99.90;;;;;;5068095;28;20219;-72
2023/12/07 06:09:24;;;;;;;3.60;3.30;;;0.60;99.90;;;;;;5066566;28;20264;-71
2023/12/07 06:11:49;;;;;;;6.53;3.30;;;0.50;99.90;;;;;;5066372;28;20662;-72
2023/12/07 06:14:15;;;;;;;3.63;3.33;;;0.40;99.90;;;;;;5068403;28;20185;-73
2023/12/07 06:16:41;;;;;;;5.37;3.87;;;0.30;99.90;;;;;;5068567;28;20276;-71
2023/12/07 06:19:06;;;;;;;6.40;4.67;;;0.30;99.90;;;;;;5066085;28;20210;-73
2023/12/07 06:21:33;;;;;;;4.10;3.70;;;0.20;99.90;;;;;;5067864;28;20218;-73
2023/12/07 06:23:58;;;;;;;5.07;3.85;;;0.10;99.90;;;;;;5068023;28;20186;-73
2023/12/07 06:26:25;;;;;;;4.70;3.50;;;0.00;99.90;;;;;;5049389;28;20250;-73
2023/12/07 06:28:51;;;;;;;4.55;3.95;;;-0.10;99.90;;;;;;5067581;28;20290;-74
2023/12/07 06:31:19;;;;;;;4.75;4.15;;;-0.20;99.90;;;;;;5066312;28;20190;-73
2023/12/07 06:33:45;;;;;;;9.75;5.38;;;-0.20;99.90;;;;;;5067559;28;20184;-73
2023/12/07 06:36:11;;;;;;;7.53;6.70;;;-0.30;99.90;;;;;;5067473;28;20209;-73
2023/12/07 06:38:38;;;;;;;8.93;6.20;;;-0.30;99.90;;;;;;5065779;28;20214;-74
2023/12/07 06:41:04;;;;;;;7.20;5.13;;;-0.30;99.90;;;;;;5067602;28;20410;-74
2023/12/07 06:43:29;;;;;;;4.83;4.43;;;-0.30;99.90;;;;;;5067597;28;20197;-74
2023/12/07 06:45:55;;;;;;;5.67;3.60;;;-0.30;99.90;;;;;;5067419;28;20198;-73
2023/12/07 06:48:21;;;;;;;4.60;3.55;;;-0.50;99.90;;;;;;5067424;28;20643;-74
2023/12/07 06:50:47;;;;;;;10.83;4.37;;;-0.50;99.90;;;;;;5066132;28;20187;-74
2023/12/07 06:53:14;;;;;;;6.13;4.80;;;-0.50;99.90;;;;;;5067777;28;20273;-73
2023/12/07 06:55:41;;;;;;;6.15;4.32;;;-0.50;99.90;;;;;;5067362;28;20238;-73
2023/12/07 06:58:07;;;;;;;8.80;4.40;;;-0.50;99.90;;;;;;5067597;28;20753;-73
2023/12/07 07:00:32;;;;;;;8.80;4.33;;;-0.50;99.90;;;;;;5066311;28;20191;-73
2023/12/07 07:02:58;;;;;;;9.77;4.80;;;-0.50;99.90;;;;;;5068079;28;20266;-74
2023/12/07 07:05:24;;;;;;;6.73;4.23;;;-0.50;99.90;;;;;;5066888;28;21010;-74
2023/12/07 07:07:51;;;;;;;4.00;3.60;;;-0.50;99.90;;;;;;5068446;28;20206;-74
2023/12/07 07:10:17;;;;;;;6.20;3.85;;;-0.40;99.90;;;;;;5068504;28;20180;-73
2023/12/07 07:12:42;;;;;;;6.30;3.30;;;-0.40;99.90;;;;;;5066533;28;20193;-71
2023/12/07 07:15:08;;;;;;;7.70;3.20;;;-0.30;99.90;;;;;;5068623;28;20187;-74
2023/12/07 07:17:34;;;;;;;3.70;3.40;;;-0.30;99.90;;;;;;5067034;28;20301;-74
2023/12/07 07:20:00;;;;;;;5.00;3.50;;;-0.20;99.90;;;;;;5068281;28;20266;-73
2023/12/07 07:22:25;;;;;;;4.20;3.17;;;-0.20;99.90;;;;;;5068349;28;20184;-75
2023/12/07 07:24:52;;;;;;;4.00;2.93;;;-0.20;99.90;;;;;;5050050;28;20197;-73
2023/12/07 07:27:17;;;;;;;7.03;3.00;;;-0.10;99.90;;;;;;5050542;28;20199;-74
2023/12/07 07:29:44;;;;;;;4.70;3.03;;;-0.10;99.90;;;;;;5067423;28;20210;-73
2023/12/07 07:32:10;;;;;;;4.88;3.17;;;-0.10;99.90;;;;;;5068663;28;20743;-73
2023/12/07 07:34:36;;;;;;;3.45;3.15;;;-0.20;99.90;;;;;;5067343;28;20687;-74
2023/12/07 07:37:02;;;;;;;4.80;2.83;;;-0.20;99.90;;;;;;5068463;28;20241;-73
2023/12/07 07:39:28;;;;;;;3.30;3.00;;;-0.20;99.90;;;;;;5067129;28;20203;-74
2023/12/07 07:41:54;;;;;;;5.50;3.20;;;-0.20;99.90;;;;;;5068500;28;20199;-72
2023/12/07 07:44:19;;;;;;;5.00;3.60;;;-0.20;99.90;;;;;;5066645;28;20212;-72
2023/12/07 07:46:46;;;;;;;8.80;3.40;;;-0.20;99.90;;;;;;5067985;28;20971;-74
2023/12/07 07:49:11;;;;;;;3.15;2.40;;;-0.20;99.90;;;;;;5068276;28;20545;-73
2023/12/07 07:51:38;;;;;;;4.40;2.57;;;-0.10;99.90;;;;;;5066563;28;20183;-74
2023/12/07 07:54:04;;;;;;;3.55;2.80;;;0.10;99.90;;;;;;5067400;28;20898;-73
2023/12/07 07:56:30;;;;;;;4.47;2.50;;;0.60;99.90;;;;;;5066320;28;20299;-72
2023/12/07 07:58:55;;;;;;;3.20;2.33;;;1.20;99.90;;;;;;5066116;28;20250;-74
2023/12/07 08:01:21;;;;;;;4.27;3.00;;;2.40;99.90;;;;;;5067552;28;20188;-72
2023/12/07 08:03:47;;;;;;;7.93;4.37;;;3.60;99.90;;;;;;5049125;28;20196;-75
2023/12/07 08:06:12;;;;;;;5.80;3.10;;;5.00;99.90;;;;;;5067416;28;20212;-74
2023/12/07 08:08:38;;;;;;;4.40;3.60;;;6.40;99.90;;;;;;5066039;28;20186;-74
2023/12/07 08:11:05;;;;;;;4.00;3.40;;;7.60;99.90;;;;;;5066715;28;20669;-74
2023/12/07 08:13:30;;;;;;;8.13;4.63;;;8.90;99.90;;;;;;5048795;28;20187;-74
2023/12/07 08:15:56;;;;;;;6.17;4.63;;;10.00;99.90;;;;;;5066462;28;20473;-74
2023/12/07 08:18:22;;;;;;;7.23;4.90;;;10.90;99.90;;;;;;5066671;28;20210;-73
2023/12/07 08:20:48;;;;;;;6.67;4.70;;;11.80;98.50;;;;;;5065649;28;20679;-73
2023/12/07 08:23:13;;;;;;;8.97;4.80;;;12.50;95.40;;;;;;5067741;28;20512;-73
2023/12/07 08:25:40;;;;;;;9.63;6.90;;;13.10;94.20;;;;;;5070453;28;20214;-72
2023/12/07 08:28:06;;;;;;;12.10;6.60;;;13.80;92.10;;;;;;5069344;28;20183;-74
2023/12/07 08:30:31;;;;;;;10.67;8.87;;;14.30;90.70;;;;;;5070998;28;20430;-73
2023/12/07 08:32:57;;;;;;;13.50;9.90;;;14.60;88.80;;;;;;5069278;28;20194;-73
2023/12/07 08:35:23;;;;;;;18.13;12.60;;;15.10;87.20;;;;;;5069692;28;20193;-73
2023/12/07 08:37:48;;;;;;;16.30;10.67;;;15.40;85.60;;;;;;5069494;28;20241;-73
2023/12/07 08:40:15;;;;;;;23.53;12.63;;;15.50;84.10;;;;;;5053031;28;20188;-72
2023/12/07 08:42:43;;;;;;;15.10;10.67;;;15.50;82.70;;;;;;5071048;28;20184;-72
2023/12/07 08:45:09;;;;;;;14.80;10.47;;;15.60;80.10;;;;;;5053243;28;20482;-73
2023/12/07 08:47:35;;;;;;;10.00;8.43;;;15.70;80.20;;;;;;5070735;28;20444;-72
2023/12/07 08:50:00;;;;;;;13.10;8.40;;;15.80;79.70;;;;;;5069287;28;20416;-72
2023/12/07 08:52:27;;;;;;;9.77;7.83;;;16.00;78.10;;;;;;5052587;28;20188;-73
2023/12/07 08:54:52;;;;;;;11.20;8.30;;;15.00;73.20;;;;;;5070644;28;20185;-72
2023/12/07 08:57:18;;;;;;;11.37;7.57;;;13.30;75.40;;;;;;5069338;28;20437;-71
2023/12/07 08:59:44;;;;;;;10.17;7.93;;;11.70;77.60;;;;;;5052597;28;20226;-73
2023/12/07 09:02:10;;;;;;;9.90;7.03;;;10.30;81.50;;;;;;5070503;28;20414;-72
2023/12/07 09:04:35;;;;;;;8.60;6.77;;;9.00;88.10;;;;;;5070679;28;20313;-71
2023/12/07 09:07:01;;;;;;;8.67;6.20;;;8.10;93.20;;;;;;5035743;28;20234;-72
2023/12/07 09:09:26;;;;;;;10.07;7.37;;;7.40;98.50;;;;;;5070320;28;20646;-71
2023/12/07 09:11:53;;;;;;;9.40;6.73;;;6.70;99.90;;;;;;5051944;28;20190;-72
2023/12/07 09:14:18;;;;;;;8.23;7.03;;;6.20;99.90;;;;;;5068485;28;20594;-73
2023/12/07 09:16:45;;;;;;;7.07;6.17;;;5.90;99.90;;;;;;5069836;28;20443;-71
2023/12/07 09:19:14;;;;;;;11.03;6.77;;;5.40;99.90;;;;;;5068139;28;20696;-72
2023/12/07 09:21:40;;;;;;;10.47;7.23;;;5.30;99.90;;;;;;5067754;28;20418;-72
2023/12/07 09:24:06;;;;;;;9.67;6.13;;;5.30;99.90;;;;;;5069211;28;20414;-71
2023/12/07 09:26:32;;;;;;;7.07;5.10;;;5.60;99.90;;;;;;5068934;28;20783;-71
2023/12/07 09:28:58;;;;;;;9.20;5.60;;;7.50;99.90;;;;;;5067868;28;20302;-73
2023/12/07 09:31:23;;;;;;;8.13;5.80;;;9.80;99.90;;;;;;5069083;28;20527;-73
2023/12/07 09:33:49;;;;;;;9.27;6.27;;;11.90;96.30;;;;;;5067620;28;20193;-73
2023/12/07 09:36:18;;;;;;;7.33;6.53;;;13.50;91.80;;;;;;5068092;28;20210;-73
2023/12/07 09:38:44;;;;;;;9.07;6.47;;;14.50;89.70;;;;;;5068868;28;20212;-73
2023/12/07 09:41:11;;;;;;;9.83;5.80;;;15.80;83.90;;;;;;5068866;28;20423;-73
2023/12/07 09:43:37;;;;;;;8.20;5.57;;;16.60;81.70;;;;;;5050613;28;20432;-72
2023/12/07 09:46:04;;;;;;;6.67;6.03;;;17.40;78.60;;;;;;5068732;28;20436;-72
2023/12/07 09:48:29;;;;;;;6.50;5.80;;;18.10;73.10;;;;;;5068717;28;20816;-72
2023/12/07 09:50:56;;;;;;;8.33;6.63;;;18.70;72.60;;;;;;5068493;28;20417;-73
2023/12/07 09:53:22;;;;;;;7.97;6.37;;;18.90;72.40;;;;;;5066962;28;20184;-72
2023/12/07 09:55:48;;;;;;;12.43;7.97;;;19.20;67.70;;;;;;5066930;28;20994;-73
2023/12/07 09:58:14;;;;;;;7.50;6.30;;;19.50;66.30;;;;;;5068319;28;20959;-73
2023/12/07 10:00:40;;;;;;;10.00;7.07;;;19.50;64.70;;;;;;5068552;28;20413;-73
2023/12/07 10:03:09;;;;;;;6.90;6.00;;;19.70;64.20;;;;;;5068470;28;20412;-72
2023/12/07 10:05:55;;;;;;;6.30;4.60;;;20.10;60.90;;;;;;5066869;28;20186;-73
2023/12/07 10:08:31;;;;;;;6.60;5.80;;;20.20;58.80;;;;;;5068344;28;20415;-73
2023/12/07 10:11:08;;;;;;;15.27;10.80;;;20.60;59.30;;;;;;5066800;28;20430;-72
2023/12/07 10:13:35;;;;;;;5.53;3.20;;;20.80;58.60;;;;;;5066944;28;20523;-73
2023/12/07 10:16:12;;;;;;;4.20;2.93;;;19.80;56.50;;;;;;5067690;28;20432;-73
2023/12/07 10:18:40;;;;;;;4.53;3.20;;;19.50;55.80;;;;;;5067862;28;20455;-73
2023/12/07 10:21:09;;;;;;;2.70;2.50;;;18.50;54.60;;;;;;5068217;28;20485;-73
2023/12/07 10:23:38;;;;;;;3.00;2.57;;;19.00;54.70;;;;;;5067963;28;20412;-74
2023/12/07 10:26:07;;;;;;;3.73;3.10;;;19.10;55.90;;;;;;5066382;28;20450;-72
2023/12/07 10:28:37;;;;;;;5.10;2.60;;;19.40;55.80;;;;;;5068247;28;20450;-73
2023/12/07 10:31:02;;;;;;;3.80;2.90;;;19.80;53.90;;;;;;5069923;28;20982;-72
2023/12/07 10:33:28;;;;;;;3.37;3.07;;;19.80;55.90;;;;;;5069654;28;20537;-72
2023/12/07 10:35:54;;;;;;;2.80;2.60;;;18.10;52.40;;;;;;5069154;28;20628;-74
2023/12/07 10:38:19;;;;;;;2.80;2.60;;;18.60;52.80;;;;;;5065983;28;20730;-73
2023/12/07 10:40:47;;;;;;;2.87;2.57;;;17.90;52.20;;;;;;5066328;28;20183;-73
2023/12/07 10:43:14;;;;;;;3.27;2.73;;;18.20;55.50;;;;;;5067532;28;20232;-73
2023/12/07 10:45:43;;;;;;;4.30;2.90;;;19.00;54.70;;;;;;5066048;28;20974;-72
2023/12/07 10:48:10;;;;;;;3.10;2.53;;;19.40;52.50;;;;;;5067670;28;20520;-72
2023/12/07 10:50:41;;;;;;;4.30;2.27;;;20.20;52.70;;;;;;5067870;28;21215;-74
2023/12/07 10:53:19;;;;;;;5.13;3.03;;;20.60;53.40;;;;;;5067577;28;20418;-74
2023/12/07 10:55:54;;;;;;;7.23;2.70;;;20.60;51.30;;;;;;5065907;28;20989;-73
2023/12/07 10:58:22;;;;;;;3.53;2.50;;;20.00;50.40;;;;;;5067338;28;20981;-73
2023/12/07 11:00:48;;;;;;;3.93;2.77;;;20.10;52.60;;;;;;5067351;28;20946;-73
2023/12/07 11:03:17;;;;;;;2.37;1.97;;;19.80;52.60;;;;;;5067609;28;20420;-74
2023/12/07 11:05:46;;;;;;;2.40;2.07;;;19.20;51.00;;;;;;5067192;28;21026;-74
2023/12/07 11:08:35;;;;;;;2.63;2.30;;;18.70;50.20;;;;;;5065963;28;20950;-73
2023/12/07 11:11:40;;;;;;;5.77;5.00;;;19.40;52.70;;;;;;5066755;28;20437;-73
2023/12/07 11:14:11;;;;;;;6.07;4.27;;;19.20;52.50;;;;;;5058286;28;20429;-73
2023/12/07 11:16:41;;;;;;;7.13;5.10;;;18.80;52.40;;;;;;5067537;28;20440;-73
2023/12/07 11:19:32;;;;;;;11.03;8.33;;;18.30;50.30;;;;;;5067460;28;20460;-72
2023/12/07 11:22:05;;;;;;;3.53;3.17;;;17.70;49.70;;;;;;5067537;28;20805;-73
2023/12/07 11:24:31;;;;;;;4.87;3.27;;;17.00;51.70;;;;;;5066262;28;20418;-74
2023/12/07 11:26:57;;;;;;;4.90;4.07;;;16.90;51.10;;;;;;5067430;28;20433;-73
2023/12/07 11:29:29;;;;;;;3.73;3.33;;;16.50;50.40;;;;;;5067474;28;20178;-73
2023/12/07 11:32:07;;;;;;;5.93;4.20;;;15.90;51.30;;;;;;5066177;28;20431;-73
2023/12/07 11:34:40;;;;;;;3.97;3.27;;;16.20;53.50;;;;;;5067612;28;20420;-72
2023/12/07 11:37:07;;;;;;;4.37;3.47;;;15.10;50.60;;;;;;5067381;28;20428;-73
2023/12/07 11:39:38;;;;;;;3.00;2.70;;;15.10;51.90;;;;;;5067378;28;20560;-73
2023/12/07 11:42:10;;;;;;;3.23;2.73;;;14.60;51.10;;;;;;5065967;28;20502;-73
2023/12/07 11:44:38;;;;;;;4.50;2.77;;;13.20;50.90;;;;;;5066226;28;20506;-72
2023/12/07 11:47:05;;;;;;;4.23;2.97;;;12.50;51.40;;;;;;5067419;28;20534;-74
2023/12/07 11:49:31;;;;;;;3.57;2.60;;;11.60;51.20;;;;;;5067867;28;20462;-73
2023/12/07 11:52:00;;;;;;;2.70;2.37;;;11.70;53.40;;;;;;5068147;28;20406;-73
2023/12/07 11:54:27;;;;;;;3.63;2.40;;;11.50;54.00;;;;;;5066422;28;20440;-74
2023/12/07 11:56:56;;;;;;;2.50;2.30;;;11.20;52.80;;;;;;5067658;28;20602;-73
2023/12/07 11:59:25;;;;;;;5.30;2.20;;;10.80;52.80;;;;;;5070624;28;20459;-72
2023/12/07 12:01:51;;;;;;;3.03;1.90;;;9.80;53.30;;;;;;5070077;28;20432;-73
2023/12/07 12:04:17;;;;;;;7.43;2.03;;;9.10;53.50;;;;;;5071094;28;20419;-73
2023/12/07 12:06:46;;;;;;;2.70;2.43;;;8.50;54.10;;;;;;5069404;28;20509;-73
2023/12/07 12:09:18;;;;;;;2.50;2.23;;;7.90;55.30;;;;;;5069291;28;20187;-73
2023/12/07 12:11:47;;;;;;;4.27;2.33;;;7.80;57.20;;;;;;5070708;28;20410;-73
2023/12/07 12:14:16;;;;;;;2.37;2.17;;;7.30;57.60;;;;;;5071060;28;20988;-73
2023/12/07 12:16:50;;;;;;;2.70;2.07;;;7.00;58.90;;;;;;5069308;28;20448;-73
2023/12/07 12:19:16;;;;;;;3.87;2.20;;;6.70;59.90;;;;;;5069019;28;21080;-73
2023/12/07 12:21:43;;;;;;;3.27;2.53;;;6.80;62.70;;;;;;5070629;28;20508;-73
2023/12/07 12:24:10;;;;;;;2.87;2.00;;;6.50;64.80;;;;;;5069259;28;20285;-73
2023/12/07 12:26:38;;;;;;;2.37;1.90;;;6.30;65.70;;;;;;5069470;28;21010;-72
2023/12/07 12:29:04;;;;;;;2.70;2.13;;;6.20;68.20;;;;;;5071015;28;20501;-72
2023/12/07 12:31:29;;;;;;;2.77;1.97;;;6.00;68.30;;;;;;5070801;28;20509;-73
2023/12/07 12:33:56;;;;;;;3.83;2.17;;;6.00;68.60;;;;;;5069352;28;20425;-72
2023/12/07 12:36:23;;;;;;;1.90;1.67;;;5.90;69.00;;;;;;5070820;28;20947;-72
2023/12/07 12:38:50;;;;;;;2.47;1.80;;;5.90;71.90;;;;;;5070971;28;20556;-73
2023/12/07 12:41:19;;;;;;;2.10;1.83;;;5.60;69.80;;;;;;5070842;28;20734;-73
2023/12/07 12:43:45;;;;;;;3.57;2.17;;;5.50;70.90;;;;;;5070925;28;20891;-74
2023/12/07 12:46:11;;;;;;;2.47;1.63;;;5.60;72.60;;;;;;5069434;28;20437;-73
2023/12/07 12:48:37;;;;;;;1.60;1.47;;;5.70;72.80;;;;;;5070491;28;20420;-73
2023/12/07 12:51:13;;;;;;;4.03;1.47;;;5.80;72.10;;;;;;5069090;28;20418;-73